createdAt,value
2019-04-01T00:00:08.244Z,1.965027
2019-04-01T00:00:20.104Z,1.975098
2019-04-01T00:00:31.966Z,1.965027
2019-04-01T00:00:43.813Z,1.934814
2019-04-01T00:00:55.658Z,1.914673
2019-04-01T00:01:08.479Z,1.904602
2019-04-01T00:01:20.330Z,1.87439
2019-04-01T00:01:32.181Z,1.87439
2019-04-01T00:01:44.042Z,1.834106
2019-04-01T00:01:55.895Z,1.824036
2019-04-01T00:02:07.763Z,1.793823
2019-04-01T00:02:19.605Z,1.763611
2019-04-01T00:02:31.455Z,1.763611
2019-04-01T00:02:43.304Z,1.723328
2019-04-01T00:02:55.142Z,1.723328
2019-04-01T00:03:06.991Z,1.693115
2019-04-01T00:03:18.825Z,1.683044
2019-04-01T00:03:30.673Z,1.642761
2019-04-01T00:03:42.512Z,1.62262
2019-04-01T00:03:54.350Z,1.612549
2019-04-01T00:04:06.188Z,1.602478
2019-04-01T00:04:18.039Z,1.582336
2019-04-01T00:04:29.911Z,1.572266
2019-04-01T00:04:41.764Z,1.572266
2019-04-01T00:04:53.614Z,1.552124
2019-04-01T00:05:05.471Z,1.552124
2019-04-01T00:05:17.319Z,1.552124
2019-04-01T00:05:29.155Z,1.542053
2019-04-01T00:05:41.010Z,1.552124
2019-04-01T00:05:52.853Z,1.542053
2019-04-01T00:06:04.685Z,1.542053
2019-04-01T00:06:16.542Z,1.521912
2019-04-01T00:06:28.388Z,1.542053
2019-04-01T00:06:40.250Z,1.511841
2019-04-01T00:06:52.147Z,1.511841
2019-04-01T00:07:03.997Z,1.511841
2019-04-01T00:07:15.866Z,1.50177
2019-04-01T00:07:27.719Z,1.50177
2019-04-01T00:07:39.571Z,1.471558
2019-04-01T00:07:51.419Z,1.471558
2019-04-01T00:08:03.255Z,1.441345
2019-04-01T00:08:15.100Z,1.471558
2019-04-01T00:08:26.945Z,1.461487
2019-04-01T00:08:38.812Z,1.461487
2019-04-01T00:08:50.635Z,1.471558
2019-04-01T00:09:02.475Z,1.461487
2019-04-01T00:09:14.309Z,1.461487
2019-04-01T00:09:26.158Z,1.471558
2019-04-01T00:09:38.010Z,1.461487
2019-04-01T00:09:49.848Z,1.461487
2019-04-01T00:10:01.715Z,1.461487
2019-04-01T00:10:13.565Z,1.461487
2019-04-01T00:10:25.391Z,1.441345
2019-04-01T00:10:37.232Z,1.441345
2019-04-01T00:10:49.071Z,1.441345
2019-04-01T00:11:00.926Z,1.461487
2019-04-01T00:11:12.774Z,1.431274
2019-04-01T00:11:24.625Z,1.441345
2019-04-01T00:11:36.473Z,1.421204
2019-04-01T00:11:48.304Z,1.421204
2019-04-01T00:12:00.185Z,1.390991
2019-04-01T00:12:12.021Z,1.390991
2019-04-01T00:12:23.900Z,1.390991
2019-04-01T00:12:35.736Z,1.390991
2019-04-01T00:12:47.584Z,1.360779
2019-04-01T00:12:59.420Z,1.360779
2019-04-01T00:13:11.262Z,1.360779
2019-04-01T00:13:23.109Z,1.360779
2019-04-01T00:13:34.923Z,1.360779
2019-04-01T00:13:46.878Z,1.330566
2019-04-01T00:13:58.713Z,1.340637
2019-04-01T00:14:10.557Z,1.360779
2019-04-01T00:14:22.394Z,1.37085
2019-04-01T00:14:34.244Z,1.421204
2019-04-01T00:14:46.100Z,1.401062
2019-04-01T00:14:57.938Z,1.431274
2019-04-01T00:15:09.781Z,1.431274
2019-04-01T00:15:21.631Z,1.441345
2019-04-01T00:15:33.486Z,1.471558
2019-04-01T00:15:45.320Z,1.471558
2019-04-01T00:15:57.157Z,1.511841
2019-04-01T00:16:08.996Z,1.521912
2019-04-01T00:16:20.835Z,1.542053
2019-04-01T00:16:32.676Z,1.552124
2019-04-01T00:16:44.518Z,1.552124
2019-04-01T00:16:56.371Z,1.572266
2019-04-01T00:17:08.195Z,1.552124
2019-04-01T00:17:20.036Z,1.572266
2019-04-01T00:17:31.881Z,1.572266
2019-04-01T00:17:43.738Z,1.582336
2019-04-01T00:17:55.588Z,1.602478
2019-04-01T00:18:07.433Z,1.602478
2019-04-01T00:18:19.281Z,1.602478
2019-04-01T00:18:31.125Z,1.582336
2019-04-01T00:18:42.974Z,1.602478
2019-04-01T00:19:02.695Z,1.602478
2019-04-01T00:19:07.645Z,1.572266
2019-04-01T00:19:19.485Z,1.572266
2019-04-01T00:19:31.316Z,1.572266
2019-04-01T00:19:43.160Z,1.552124
2019-04-01T00:19:55.006Z,1.552124
2019-04-01T00:20:06.851Z,1.572266
2019-04-01T00:20:18.691Z,1.552124
2019-04-01T00:20:30.540Z,1.542053
2019-04-01T00:20:42.381Z,1.542053
2019-04-01T00:20:54.219Z,1.521912
2019-04-01T00:21:06.062Z,1.511841
2019-04-01T00:21:17.904Z,1.50177
2019-04-01T00:21:29.754Z,1.50177
2019-04-01T00:21:44.416Z,1.471558
2019-04-01T00:21:53.438Z,1.461487
2019-04-01T00:22:05.302Z,1.441345
2019-04-01T00:22:17.139Z,1.431274
2019-04-01T00:22:29.016Z,1.421204
2019-04-01T00:22:40.832Z,1.431274
2019-04-01T00:22:52.704Z,1.421204
2019-04-01T00:23:04.701Z,1.421204
2019-04-01T00:23:16.349Z,1.401062
2019-04-01T00:23:28.215Z,1.390991
2019-04-01T00:23:40.069Z,1.401062
2019-04-01T00:23:51.905Z,1.401062
2019-04-01T00:24:03.756Z,1.390991
2019-04-01T00:24:15.594Z,1.401062
2019-04-01T00:24:27.434Z,1.390991
2019-04-01T00:24:39.279Z,1.37085
2019-04-01T00:24:51.125Z,1.37085
2019-04-01T00:25:02.975Z,1.360779
2019-04-01T00:25:14.816Z,1.360779
2019-04-01T00:25:26.643Z,1.340637
2019-04-01T00:25:38.486Z,1.340637
2019-04-01T00:25:50.326Z,1.320496
2019-04-01T00:26:02.176Z,1.290283
2019-04-01T00:26:14.014Z,1.290283
2019-04-01T00:26:25.861Z,1.290283
2019-04-01T00:26:37.712Z,1.260071
2019-04-01T00:26:49.554Z,1.280212
2019-04-01T00:27:01.398Z,1.290283
2019-04-01T00:27:13.240Z,1.290283
2019-04-01T00:27:25.079Z,1.320496
2019-04-01T00:27:36.928Z,1.320496
2019-04-01T00:27:48.762Z,1.330566
2019-04-01T00:28:00.598Z,1.330566
2019-04-01T00:28:12.429Z,1.340637
2019-04-01T00:28:24.272Z,1.340637
2019-04-01T00:28:36.154Z,1.360779
2019-04-01T00:28:47.998Z,1.37085
2019-04-01T00:28:59.846Z,1.390991
2019-04-01T00:29:11.676Z,1.401062
2019-04-01T00:29:23.548Z,1.401062
2019-04-01T00:29:35.387Z,1.421204
2019-04-01T00:29:47.229Z,1.431274
2019-04-01T00:29:59.069Z,1.441345
2019-04-01T00:30:10.911Z,1.441345
2019-04-01T00:30:22.745Z,1.461487
2019-04-01T00:30:34.599Z,1.461487
2019-04-01T00:30:46.437Z,1.461487
2019-04-01T00:30:58.280Z,1.471558
2019-04-01T00:31:10.126Z,1.471558
2019-04-01T00:31:21.955Z,1.471558
2019-04-01T00:31:33.794Z,1.50177
2019-04-01T00:31:45.634Z,1.50177
2019-04-01T00:31:57.494Z,1.50177
2019-04-01T00:32:09.391Z,1.50177
2019-04-01T00:32:22.193Z,1.50177
2019-04-01T00:32:34.068Z,1.50177
2019-04-01T00:32:45.920Z,1.50177
2019-04-01T00:32:57.773Z,1.50177
2019-04-01T00:33:09.623Z,1.50177
2019-04-01T00:33:21.469Z,1.50177
2019-04-01T00:33:33.320Z,1.50177
2019-04-01T00:33:45.174Z,1.50177
2019-04-01T00:33:57.025Z,1.50177
2019-04-01T00:34:08.867Z,1.511841
2019-04-01T00:34:20.716Z,1.521912
2019-04-01T00:34:32.564Z,1.511841
2019-04-01T00:34:44.393Z,1.511841
2019-04-01T00:34:56.246Z,1.521912
2019-04-01T00:35:08.134Z,1.511841
2019-04-01T00:35:19.966Z,1.521912
2019-04-01T00:35:31.816Z,1.511841
2019-04-01T00:35:43.654Z,1.511841
2019-04-01T00:35:55.506Z,1.471558
2019-04-01T00:36:07.347Z,1.511841
2019-04-01T00:36:19.186Z,1.50177
2019-04-01T00:36:31.055Z,1.511841
2019-04-01T00:36:42.886Z,1.511841
2019-04-01T00:36:54.725Z,1.511841
2019-04-01T00:37:06.555Z,1.511841
2019-04-01T00:37:18.392Z,1.521912
2019-04-01T00:37:30.227Z,1.542053
2019-04-01T00:37:42.066Z,1.542053
2019-04-01T00:37:53.918Z,1.521912
2019-04-01T00:38:05.756Z,1.552124
2019-04-01T00:38:17.595Z,1.542053
2019-04-01T00:38:29.447Z,1.552124
2019-04-01T00:38:41.293Z,1.552124
2019-04-01T00:38:53.147Z,1.552124
2019-04-01T00:39:04.979Z,1.552124
2019-04-01T00:39:16.948Z,1.521912
2019-04-01T00:39:28.772Z,1.521912
2019-04-01T00:39:40.600Z,1.511841
2019-04-01T00:39:52.440Z,1.511841
2019-04-01T00:40:04.292Z,1.50177
2019-04-01T00:40:16.128Z,1.461487
2019-04-01T00:40:27.975Z,1.461487
2019-04-01T00:40:39.825Z,1.441345
2019-04-01T00:40:51.675Z,1.441345
2019-04-01T00:41:03.507Z,1.431274
2019-04-01T00:41:15.352Z,1.431274
2019-04-01T00:41:28.187Z,1.441345
2019-04-01T00:41:40.029Z,1.431274
2019-04-01T00:41:51.865Z,1.461487
2019-04-01T00:42:03.715Z,1.441345
2019-04-01T00:42:15.554Z,1.441345
2019-04-01T00:42:27.397Z,1.461487
2019-04-01T00:42:39.240Z,1.461487
2019-04-01T00:42:51.098Z,1.471558
2019-04-01T00:43:02.943Z,1.50177
2019-04-01T00:43:14.789Z,1.471558
2019-04-01T00:43:26.640Z,1.511841
2019-04-01T00:43:38.490Z,1.521912
2019-04-01T00:43:50.336Z,1.521912
2019-04-01T00:44:02.182Z,1.521912
2019-04-01T00:44:14.056Z,1.511841
2019-04-01T00:44:25.893Z,1.542053
2019-04-01T00:44:40.430Z,1.521912
2019-04-01T00:44:50.572Z,1.521912
2019-04-01T00:45:02.406Z,1.542053
2019-04-01T00:45:14.272Z,1.542053
2019-04-01T00:45:26.146Z,1.552124
2019-04-01T00:45:38.977Z,1.552124
2019-04-01T00:45:50.821Z,1.552124
2019-04-01T00:46:02.658Z,1.552124
2019-04-01T00:46:14.507Z,1.572266
2019-04-01T00:46:26.344Z,1.582336
2019-04-01T00:46:38.209Z,1.572266
2019-04-01T00:46:50.053Z,1.572266
2019-04-01T00:47:01.908Z,1.602478
2019-04-01T00:47:13.750Z,1.602478
2019-04-01T00:47:25.587Z,1.612549
2019-04-01T00:47:37.433Z,1.62262
2019-04-01T00:47:49.277Z,1.612549
2019-04-01T00:48:01.117Z,1.62262
2019-04-01T00:48:12.961Z,1.62262
2019-04-01T00:48:24.800Z,1.642761
2019-04-01T00:48:36.639Z,1.642761
2019-04-01T00:48:48.486Z,1.652832
2019-04-01T00:49:00.331Z,1.683044
2019-04-01T00:49:12.173Z,1.683044
2019-04-01T00:49:24.018Z,1.693115
2019-04-01T00:49:35.860Z,1.693115
2019-04-01T00:49:47.702Z,1.713257
2019-04-01T00:49:59.537Z,1.713257
2019-04-01T00:50:11.433Z,1.713257
2019-04-01T00:50:23.274Z,1.713257
2019-04-01T00:50:35.119Z,1.713257
2019-04-01T00:50:46.969Z,1.723328
2019-04-01T00:50:58.805Z,1.723328
2019-04-01T00:51:10.654Z,1.723328
2019-04-01T00:51:22.491Z,1.723328
2019-04-01T00:51:34.329Z,1.733398
2019-04-01T00:51:46.187Z,1.723328
2019-04-01T00:51:58.032Z,1.733398
2019-04-01T00:52:09.874Z,1.723328
2019-04-01T00:52:21.721Z,1.733398
2019-04-01T00:52:33.547Z,1.733398
2019-04-01T00:52:45.386Z,1.733398
2019-04-01T00:52:57.233Z,1.723328
2019-04-01T00:53:09.074Z,1.733398
2019-04-01T00:53:20.919Z,1.733398
2019-04-01T00:53:32.753Z,1.733398
2019-04-01T00:53:44.598Z,1.733398
2019-04-01T00:53:56.443Z,1.75354
2019-04-01T00:54:08.292Z,1.75354
2019-04-01T00:54:20.139Z,1.733398
2019-04-01T00:54:31.999Z,1.733398
2019-04-01T00:54:43.835Z,1.763611
2019-04-01T00:54:55.677Z,1.75354
2019-04-01T00:55:07.554Z,1.783752
2019-04-01T00:55:19.390Z,1.763611
2019-04-01T00:55:31.257Z,1.783752
2019-04-01T00:55:43.105Z,1.803894
2019-04-01T00:55:54.950Z,1.803894
2019-04-01T00:56:06.789Z,1.803894
2019-04-01T00:56:18.658Z,1.834106
2019-04-01T00:56:30.491Z,1.834106
2019-04-01T00:56:42.334Z,1.824036
2019-04-01T00:56:54.175Z,1.834106
2019-04-01T00:57:06.007Z,1.834106
2019-04-01T00:57:17.852Z,1.854248
2019-04-01T00:57:29.689Z,1.834106
2019-04-01T00:57:41.515Z,1.854248
2019-04-01T00:57:53.344Z,1.854248
2019-04-01T00:58:05.189Z,1.87439
2019-04-01T00:58:17.029Z,1.854248
2019-04-01T00:58:30.576Z,1.87439
2019-04-01T00:58:41.712Z,1.894531
2019-04-01T00:58:53.557Z,1.87439
2019-04-01T00:59:05.398Z,1.894531
2019-04-01T00:59:17.227Z,1.894531
2019-04-01T00:59:29.073Z,1.894531
2019-04-01T00:59:40.922Z,1.904602
2019-04-01T00:59:52.762Z,1.894531
2019-04-01T01:00:04.605Z,1.904602
2019-04-01T01:00:16.436Z,1.894531
2019-04-01T01:00:28.273Z,1.894531
2019-04-01T01:00:40.126Z,1.904602
2019-04-01T01:00:51.970Z,1.894531
2019-04-01T01:01:03.812Z,1.87439
2019-04-01T01:01:15.647Z,1.87439
2019-04-01T01:01:27.490Z,1.87439
2019-04-01T01:01:39.332Z,1.87439
2019-04-01T01:01:51.181Z,1.854248
2019-04-01T01:02:03.006Z,1.834106
2019-04-01T01:02:14.848Z,1.834106
2019-04-01T01:02:26.683Z,1.854248
2019-04-01T01:02:38.515Z,1.854248
2019-04-01T01:02:50.486Z,1.854248
2019-04-01T01:03:02.332Z,1.854248
2019-04-01T01:03:14.168Z,1.854248
2019-04-01T01:03:26.008Z,1.854248
2019-04-01T01:03:37.854Z,1.854248
2019-04-01T01:03:49.704Z,1.87439
2019-04-01T01:04:01.550Z,1.834106
2019-04-01T01:04:13.403Z,1.834106
2019-04-01T01:04:25.243Z,1.854248
2019-04-01T01:04:37.094Z,1.824036
2019-04-01T01:04:48.933Z,1.824036
2019-04-01T01:05:00.775Z,1.803894
2019-04-01T01:05:12.614Z,1.824036
2019-04-01T01:05:24.465Z,1.803894
2019-04-01T01:05:36.302Z,1.824036
2019-04-01T01:05:48.126Z,1.824036
2019-04-01T01:05:59.966Z,1.834106
2019-04-01T01:06:11.807Z,1.803894
2019-04-01T01:06:23.650Z,1.803894
2019-04-01T01:06:35.495Z,1.803894
2019-04-01T01:06:47.335Z,1.793823
2019-04-01T01:06:59.187Z,1.793823
2019-04-01T01:07:11.031Z,1.793823
2019-04-01T01:07:22.873Z,1.783752
2019-04-01T01:07:34.721Z,1.793823
2019-04-01T01:07:46.558Z,1.793823
2019-04-01T01:07:58.431Z,1.793823
2019-04-01T01:08:10.263Z,1.793823
2019-04-01T01:08:22.116Z,1.783752
2019-04-01T01:08:33.968Z,1.763611
2019-04-01T01:08:45.812Z,1.763611
2019-04-01T01:08:57.664Z,1.763611
2019-04-01T01:09:09.510Z,1.763611
2019-04-01T01:09:21.347Z,1.763611
2019-04-01T01:09:33.198Z,1.763611
2019-04-01T01:09:45.047Z,1.763611
2019-04-01T01:09:56.889Z,1.783752
2019-04-01T01:10:08.742Z,1.75354
2019-04-01T01:10:20.596Z,1.75354
2019-04-01T01:10:32.449Z,1.75354
2019-04-01T01:10:44.294Z,1.75354
2019-04-01T01:10:56.152Z,1.75354
2019-04-01T01:11:07.994Z,1.75354
2019-04-01T01:11:19.840Z,1.75354
2019-04-01T01:11:31.714Z,1.733398
2019-04-01T01:11:43.562Z,1.733398
2019-04-01T01:11:55.406Z,1.733398
2019-04-01T01:12:07.244Z,1.713257
2019-04-01T01:12:19.103Z,1.723328
2019-04-01T01:12:30.965Z,1.723328
2019-04-01T01:12:42.810Z,1.713257
2019-04-01T01:12:54.651Z,1.723328
2019-04-01T01:13:06.494Z,1.723328
2019-04-01T01:13:18.324Z,1.723328
2019-04-01T01:13:30.185Z,1.733398
2019-04-01T01:13:42.026Z,1.75354
2019-04-01T01:13:53.877Z,1.75354
2019-04-01T01:14:05.726Z,1.733398
2019-04-01T01:14:17.561Z,1.733398
2019-04-01T01:14:29.417Z,1.723328
2019-04-01T01:14:41.255Z,1.723328
2019-04-01T01:14:53.101Z,1.723328
2019-04-01T01:15:04.943Z,1.713257
2019-04-01T01:15:16.791Z,1.713257
2019-04-01T01:15:28.631Z,1.713257
2019-04-01T01:15:40.466Z,1.693115
2019-04-01T01:15:52.303Z,1.713257
2019-04-01T01:16:04.176Z,1.693115
2019-04-01T01:16:16.021Z,1.693115
2019-04-01T01:16:27.881Z,1.693115
2019-04-01T01:16:39.706Z,1.683044
2019-04-01T01:16:51.554Z,1.683044
2019-04-01T01:17:03.397Z,1.693115
2019-04-01T01:17:15.232Z,1.652832
2019-04-01T01:17:27.083Z,1.652832
2019-04-01T01:17:38.943Z,1.652832
2019-04-01T01:17:50.782Z,1.652832
2019-04-01T01:18:02.655Z,1.652832
2019-04-01T01:18:14.507Z,1.652832
2019-04-01T01:18:26.354Z,1.652832
2019-04-01T01:18:38.216Z,1.652832
2019-04-01T01:18:50.067Z,1.642761
2019-04-01T01:19:01.915Z,1.642761
2019-04-01T01:19:13.772Z,1.642761
2019-04-01T01:19:26.616Z,1.652832
2019-04-01T01:19:38.440Z,1.652832
2019-04-01T01:19:50.284Z,1.652832
2019-04-01T01:20:02.116Z,1.693115
2019-04-01T01:20:13.959Z,1.693115
2019-04-01T01:20:25.800Z,1.723328
2019-04-01T01:20:37.639Z,1.723328
2019-04-01T01:20:49.479Z,1.733398
2019-04-01T01:21:01.330Z,1.733398
2019-04-01T01:21:13.175Z,1.763611
2019-04-01T01:21:25.165Z,1.783752
2019-04-01T01:21:37.006Z,1.793823
2019-04-01T01:21:48.929Z,1.803894
2019-04-01T01:22:00.759Z,1.824036
2019-04-01T01:22:12.596Z,1.803894
2019-04-01T01:22:24.448Z,1.793823
2019-04-01T01:22:36.283Z,1.783752
2019-04-01T01:22:48.134Z,1.783752
2019-04-01T01:22:59.971Z,1.763611
2019-04-01T01:23:11.800Z,1.733398
2019-04-01T01:23:23.656Z,1.75354
2019-04-01T01:23:35.489Z,1.733398
2019-04-01T01:23:47.340Z,1.733398
2019-04-01T01:23:59.192Z,1.723328
2019-04-01T01:24:11.038Z,1.713257
2019-04-01T01:24:22.886Z,1.713257
2019-04-01T01:24:34.714Z,1.713257
2019-04-01T01:24:46.557Z,1.693115
2019-04-01T01:24:58.416Z,1.693115
2019-04-01T01:25:10.265Z,1.683044
2019-04-01T01:25:22.108Z,1.683044
2019-04-01T01:25:33.955Z,1.683044
2019-04-01T01:25:45.796Z,1.683044
2019-04-01T01:25:57.636Z,1.683044
2019-04-01T01:26:09.483Z,1.652832
2019-04-01T01:26:21.323Z,1.642761
2019-04-01T01:26:33.191Z,1.642761
2019-04-01T01:26:45.034Z,1.62262
2019-04-01T01:26:56.873Z,1.642761
2019-04-01T01:27:08.715Z,1.642761
2019-04-01T01:27:20.571Z,1.683044
2019-04-01T01:27:32.419Z,1.642761
2019-04-01T01:27:44.265Z,1.642761
2019-04-01T01:27:56.099Z,1.642761
2019-04-01T01:28:07.939Z,1.652832
2019-04-01T01:28:19.771Z,1.652832
2019-04-01T01:28:31.609Z,1.652832
2019-04-01T01:28:43.461Z,1.683044
2019-04-01T01:28:55.294Z,1.693115
2019-04-01T01:29:07.146Z,1.693115
2019-04-01T01:29:18.986Z,1.693115
2019-04-01T01:29:30.835Z,1.713257
2019-04-01T01:29:42.685Z,1.713257
2019-04-01T01:29:54.571Z,1.713257
2019-04-01T01:30:06.463Z,1.723328
2019-04-01T01:30:18.290Z,1.723328
2019-04-01T01:30:30.213Z,1.723328
2019-04-01T01:30:41.985Z,1.733398
2019-04-01T01:30:53.885Z,1.733398
2019-04-01T01:31:05.742Z,1.733398
2019-04-01T01:31:17.585Z,1.75354
2019-04-01T01:31:29.439Z,1.733398
2019-04-01T01:31:41.291Z,1.75354
2019-04-01T01:31:53.150Z,1.733398
2019-04-01T01:32:04.995Z,1.75354
2019-04-01T01:32:16.843Z,1.733398
2019-04-01T01:32:28.693Z,1.723328
2019-04-01T01:32:40.526Z,1.733398
2019-04-01T01:32:52.372Z,1.733398
2019-04-01T01:33:05.213Z,1.733398
2019-04-01T01:33:17.061Z,1.733398
2019-04-01T01:33:28.896Z,1.723328
2019-04-01T01:33:40.756Z,1.723328
2019-04-01T01:33:52.596Z,1.713257
2019-04-01T01:34:04.444Z,1.693115
2019-04-01T01:34:16.291Z,1.693115
2019-04-01T01:34:28.145Z,1.683044
2019-04-01T01:34:39.993Z,1.683044
2019-04-01T01:34:51.841Z,1.652832
2019-04-01T01:35:03.701Z,1.62262
2019-04-01T01:35:15.549Z,1.642761
2019-04-01T01:35:27.392Z,1.612549
2019-04-01T01:35:39.223Z,1.612549
2019-04-01T01:35:51.067Z,1.602478
2019-04-01T01:36:02.934Z,1.582336
2019-04-01T01:36:14.764Z,1.572266
2019-04-01T01:36:26.611Z,1.582336
2019-04-01T01:36:38.456Z,1.572266
2019-04-01T01:36:50.309Z,1.552124
2019-04-01T01:37:02.139Z,1.552124
2019-04-01T01:37:13.986Z,1.552124
2019-04-01T01:37:25.864Z,1.542053
2019-04-01T01:37:37.703Z,1.542053
2019-04-01T01:37:49.551Z,1.521912
2019-04-01T01:38:01.390Z,1.511841
2019-04-01T01:38:13.231Z,1.511841
2019-04-01T01:38:25.074Z,1.471558
2019-04-01T01:38:36.911Z,1.461487
2019-04-01T01:38:48.761Z,1.441345
2019-04-01T01:39:00.598Z,1.441345
2019-04-01T01:39:12.441Z,1.431274
2019-04-01T01:39:24.279Z,1.421204
2019-04-01T01:39:36.173Z,1.37085
2019-04-01T01:39:48.014Z,1.360779
2019-04-01T01:39:59.884Z,1.330566
2019-04-01T01:40:11.723Z,1.320496
2019-04-01T01:40:23.579Z,1.290283
2019-04-01T01:40:35.413Z,1.280212
2019-04-01T01:40:47.246Z,1.260071
2019-04-01T01:40:59.078Z,1.25
2019-04-01T01:41:10.922Z,1.239929
2019-04-01T01:41:22.768Z,1.219788
2019-04-01T01:41:34.611Z,1.219788
2019-04-01T01:41:46.444Z,1.219788
2019-04-01T01:41:58.281Z,1.209717
2019-04-01T01:42:10.123Z,1.209717
2019-04-01T01:42:21.978Z,1.219788
2019-04-01T01:42:33.843Z,1.209717
2019-04-01T01:42:45.681Z,1.209717
2019-04-01T01:42:57.535Z,1.189575
2019-04-01T01:43:09.384Z,1.219788
2019-04-01T01:43:21.218Z,1.209717
2019-04-01T01:43:33.139Z,1.209717
2019-04-01T01:43:44.903Z,1.189575
2019-04-01T01:43:56.758Z,1.189575
2019-04-01T01:44:08.596Z,1.189575
2019-04-01T01:44:20.432Z,1.209717
2019-04-01T01:44:32.401Z,1.209717
2019-04-01T01:44:44.255Z,1.209717
2019-04-01T01:44:56.094Z,1.219788
2019-04-01T01:45:07.938Z,1.219788
2019-04-01T01:45:19.767Z,1.219788
2019-04-01T01:45:31.605Z,1.239929
2019-04-01T01:45:43.453Z,1.25
2019-04-01T01:45:55.302Z,1.25
2019-04-01T01:46:07.143Z,1.25
2019-04-01T01:46:18.981Z,1.25
2019-04-01T01:46:30.825Z,1.260071
2019-04-01T01:46:42.673Z,1.25
2019-04-01T01:46:54.517Z,1.25
2019-04-01T01:47:06.382Z,1.260071
2019-04-01T01:47:18.215Z,1.260071
2019-04-01T01:47:30.049Z,1.280212
2019-04-01T01:47:41.910Z,1.290283
2019-04-01T01:47:53.752Z,1.290283
2019-04-01T01:48:05.590Z,1.320496
2019-04-01T01:48:17.439Z,1.290283
2019-04-01T01:48:29.291Z,1.320496
2019-04-01T01:48:41.130Z,1.320496
2019-04-01T01:48:52.959Z,1.320496
2019-04-01T01:49:04.804Z,1.340637
2019-04-01T01:49:16.645Z,1.340637
2019-04-01T01:49:28.522Z,1.340637
2019-04-01T01:49:40.350Z,1.340637
2019-04-01T01:49:52.195Z,1.340637
2019-04-01T01:50:04.039Z,1.340637
2019-04-01T01:50:15.887Z,1.340637
2019-04-01T01:50:27.716Z,1.340637
2019-04-01T01:50:39.564Z,1.340637
2019-04-01T01:50:51.387Z,1.340637
2019-04-01T01:51:03.225Z,1.340637
2019-04-01T01:51:15.076Z,1.340637
2019-04-01T01:51:26.924Z,1.340637
2019-04-01T01:51:38.756Z,1.340637
2019-04-01T01:51:50.595Z,1.340637
2019-04-01T01:52:02.433Z,1.340637
2019-04-01T01:52:14.267Z,1.360779
2019-04-01T01:52:26.114Z,1.360779
2019-04-01T01:52:37.968Z,1.360779
2019-04-01T01:52:49.798Z,1.340637
2019-04-01T01:53:01.639Z,1.360779
2019-04-01T01:53:14.478Z,1.340637
2019-04-01T01:53:26.324Z,1.360779
2019-04-01T01:53:41.450Z,1.340637
2019-04-01T01:53:49.990Z,1.360779
2019-04-01T01:54:01.831Z,1.37085
2019-04-01T01:54:13.671Z,1.37085
2019-04-01T01:54:25.513Z,1.37085
2019-04-01T01:54:37.353Z,1.390991
2019-04-01T01:54:49.192Z,1.37085
2019-04-01T01:55:01.056Z,1.390991
2019-04-01T01:55:12.900Z,1.37085
2019-04-01T01:55:24.734Z,1.37085
2019-04-01T01:55:36.578Z,1.360779
2019-04-01T01:55:48.423Z,1.37085
2019-04-01T01:56:00.271Z,1.37085
2019-04-01T01:56:12.114Z,1.37085
2019-04-01T01:56:23.965Z,1.390991
2019-04-01T01:56:35.800Z,1.390991
2019-04-01T01:56:47.670Z,1.390991
2019-04-01T01:56:59.517Z,1.37085
2019-04-01T01:57:11.353Z,1.390991
2019-04-01T01:57:23.191Z,1.390991
2019-04-01T01:57:35.038Z,1.390991
2019-04-01T01:57:46.883Z,1.390991
2019-04-01T01:57:58.710Z,1.390991
2019-04-01T01:58:10.556Z,1.360779
2019-04-01T01:58:22.392Z,1.37085
2019-04-01T01:58:34.233Z,1.37085
2019-04-01T01:58:47.071Z,1.37085
2019-04-01T01:58:58.907Z,1.360779
2019-04-01T01:59:10.749Z,1.360779
2019-04-01T01:59:22.599Z,1.360779
2019-04-01T01:59:34.433Z,1.360779
2019-04-01T01:59:46.273Z,1.360779
2019-04-01T01:59:58.129Z,1.340637
2019-04-01T02:00:10.025Z,1.360779
2019-04-01T02:00:21.858Z,1.360779
2019-04-01T02:00:33.709Z,1.340637
2019-04-01T02:00:45.558Z,1.340637
2019-04-01T02:00:57.399Z,1.340637
2019-04-01T02:01:09.244Z,1.330566
2019-04-01T02:01:21.076Z,1.320496
2019-04-01T02:01:32.916Z,1.340637
2019-04-01T02:01:44.761Z,1.330566
2019-04-01T02:01:56.603Z,1.320496
2019-04-01T02:02:08.445Z,1.330566
2019-04-01T02:02:20.283Z,1.330566
2019-04-01T02:02:32.124Z,1.320496
2019-04-01T02:02:43.966Z,1.320496
2019-04-01T02:02:55.809Z,1.320496
2019-04-01T02:03:07.645Z,1.320496
2019-04-01T02:03:19.483Z,1.320496
2019-04-01T02:03:31.321Z,1.290283
2019-04-01T02:03:43.190Z,1.290283
2019-04-01T02:03:55.025Z,1.320496
2019-04-01T02:04:06.876Z,1.290283
2019-04-01T02:04:18.713Z,1.290283
2019-04-01T02:04:30.555Z,1.280212
2019-04-01T02:04:42.399Z,1.280212
2019-04-01T02:04:54.236Z,1.260071
2019-04-01T02:05:06.072Z,1.260071
2019-04-01T02:05:17.940Z,1.260071
2019-04-01T02:05:29.793Z,1.260071
2019-04-01T02:05:41.647Z,1.260071
2019-04-01T02:05:53.478Z,1.25
2019-04-01T02:06:05.327Z,1.25
2019-04-01T02:06:17.193Z,1.239929
2019-04-01T02:06:29.119Z,1.25
2019-04-01T02:06:40.875Z,1.25
2019-04-01T02:06:52.709Z,1.239929
2019-04-01T02:07:04.574Z,1.219788
2019-04-01T02:07:16.406Z,1.239929
2019-04-01T02:07:28.253Z,1.239929
2019-04-01T02:07:40.097Z,1.239929
2019-04-01T02:07:51.934Z,1.209717
2019-04-01T02:08:03.772Z,1.219788
2019-04-01T02:08:15.604Z,1.219788
2019-04-01T02:08:27.447Z,1.209717
2019-04-01T02:08:40.285Z,1.209717
2019-04-01T02:08:52.128Z,1.209717
2019-04-01T02:09:03.976Z,1.209717
2019-04-01T02:09:15.813Z,1.189575
2019-04-01T02:09:27.642Z,1.189575
2019-04-01T02:09:39.478Z,1.189575
2019-04-01T02:09:51.316Z,1.179504
2019-04-01T02:10:03.163Z,1.189575
2019-04-01T02:10:15.041Z,1.179504
2019-04-01T02:10:26.890Z,1.189575
2019-04-01T02:10:38.719Z,1.189575
2019-04-01T02:10:50.565Z,1.179504
2019-04-01T02:11:02.415Z,1.189575
2019-04-01T02:11:14.251Z,1.189575
2019-04-01T02:11:26.091Z,1.209717
2019-04-01T02:11:37.931Z,1.209717
2019-04-01T02:11:49.774Z,1.189575
2019-04-01T02:12:01.613Z,1.189575
2019-04-01T02:12:13.460Z,1.209717
2019-04-01T02:12:25.299Z,1.209717
2019-04-01T02:12:37.140Z,1.209717
2019-04-01T02:12:48.978Z,1.209717
2019-04-01T02:13:00.813Z,1.209717
2019-04-01T02:13:12.664Z,1.209717
2019-04-01T02:13:24.492Z,1.219788
2019-04-01T02:13:36.325Z,1.209717
2019-04-01T02:13:48.169Z,1.219788
2019-04-01T02:14:00.002Z,1.219788
2019-04-01T02:14:11.840Z,1.209717
2019-04-01T02:14:23.678Z,1.209717
2019-04-01T02:14:35.522Z,1.209717
2019-04-01T02:14:47.359Z,1.209717
2019-04-01T02:14:59.202Z,1.209717
2019-04-01T02:15:11.043Z,1.209717
2019-04-01T02:15:22.917Z,1.209717
2019-04-01T02:15:34.766Z,1.209717
2019-04-01T02:15:46.601Z,1.189575
2019-04-01T02:15:58.439Z,1.209717
2019-04-01T02:16:10.285Z,1.209717
2019-04-01T02:16:22.128Z,1.209717
2019-04-01T02:16:33.968Z,1.219788
2019-04-01T02:16:45.826Z,1.209717
2019-04-01T02:16:57.672Z,1.209717
2019-04-01T02:17:09.520Z,1.209717
2019-04-01T02:17:21.363Z,1.209717
2019-04-01T02:17:33.214Z,1.189575
2019-04-01T02:17:45.059Z,1.189575
2019-04-01T02:17:56.885Z,1.189575
2019-04-01T02:18:08.765Z,1.209717
2019-04-01T02:18:20.599Z,1.189575
2019-04-01T02:18:32.441Z,1.189575
2019-04-01T02:18:44.281Z,1.179504
2019-04-01T02:18:56.122Z,1.179504
2019-04-01T02:19:07.953Z,1.179504
2019-04-01T02:19:19.793Z,1.179504
2019-04-01T02:19:31.655Z,1.179504
2019-04-01T02:19:43.499Z,1.179504
2019-04-01T02:19:55.343Z,1.179504